BBC Orinoco — V2DM2 — position and weather

sailwx.info

Track history (hours):
 
Tides and Currents Weather Stations Pressure Air Temp Water Temp Dewpoint Dewpoint Depression Visibility Wind Speed Wind Dir Waves Ship Positions

BBC Orinoco

Last reported at 2018-Feb-16 18:01 UTC. Time now 2018-Feb-21 17:28 UTC.
Position N 27°11' W 093°55'.

Length 143 m; draft 8.6 m.

Type: Ship. MMSI: 305255000.

Date/timePositionNaut miles runAvg speedWind from/ knotsBaromVisibWave heightAir tempDewpointWater temp
2018-Feb-16 18:01N 27°11' W 093°55'111.4
2018-Feb-16 17:59N 27°11' W 093°55'6810.6
2018-Feb-16 11:38N 28°13' W 094°25'110.8
2018-Feb-16 11:30N 28°14' W 094°25'910.9
2018-Feb-16 10:39N 28°23' W 094°25'3410.9
2018-Feb-16 07:34N 28°57' W 094°26'1010.5
2018-Feb-16 06:38N 29°07' W 094°26'210.9
2018-Feb-16 06:30N 29°08' W 094°27'610.8
2018-Feb-16 05:57N 29°13' W 094°32'510.9
2018-Feb-16 05:27N 29°17' W 094°36'511.1
2018-Feb-16 05:00N 29°20' W 094°40'510.0
2018-Feb-16 04:27N 29°20' W 094°47'2 4.2
2018-Feb-16 03:59N 29°19' W 094°48'0 0.0
2018-Feb-16 00:29N 29°19' W 094°48'2 4.0
2018-Feb-15 23:59N 29°20' W 094°47'4 8.2
2018-Feb-15 23:28N 29°23' W 094°49'4 8.9
2018-Feb-15 22:59N 29°27' W 094°51'5 9.4
2018-Feb-15 22:25N 29°32' W 094°54'18 6.4
2018-Feb-15 19:35N 29°44' W 095°09'5 0.4
2018-Feb-15 08:29N 29°43' W 095°15'0 0.0
2018-Feb-15 07:56N 29°43' W 095°15'0 0.0
2018-Feb-15 06:49N 29°43' W 095°15'0 0.0
2018-Feb-15 05:06N 29°43' W 095°15'0 0.0
2018-Feb-15 04:57N 29°43' W 095°15'5 0.2
2018-Feb-13 18:30N 29°44' W 095°09'3 6.5
2018-Feb-13 18:00N 29°46' W 095°05'3 6.4
2018-Feb-13 17:29N 29°44' W 095°02'4 7.8
2018-Feb-13 17:00N 29°41' W 094°59'510.7
2018-Feb-13 16:30N 29°36' W 094°57'611.6
2018-Feb-13 16:00N 29°31' W 094°53'611.3
2018-Feb-13 15:30N 29°26' W 094°50'  
Track history (hours):
 
Tides and Currents Weather Stations Pressure Air Temp Water Temp Dewpoint Dewpoint Depression Visibility Wind Speed Wind Dir Waves Ship Positions

BBC Orinoco

Last reported at 2018-Feb-16 18:01 UTC. Time now 2018-Feb-21 17:28 UTC.
Position N 27°11' W 093°55'.

Length 143 m; draft 8.6 m.

Type: Ship. MMSI: 305255000.

Date/timePositionNaut miles runAvg speedWind from/ knotsBaromVisibWave heightAir tempDewpointWater temp
2018-Feb-16 18:01N 27°11' W 093°55'111.4
2018-Feb-16 17:59N 27°11' W 093°55'6810.6
2018-Feb-16 11:38N 28°13' W 094°25'110.8
2018-Feb-16 11:30N 28°14' W 094°25'910.9
2018-Feb-16 10:39N 28°23' W 094°25'3410.9
2018-Feb-16 07:34N 28°57' W 094°26'1010.5
2018-Feb-16 06:38N 29°07' W 094°26'210.9
2018-Feb-16 06:30N 29°08' W 094°27'610.8
2018-Feb-16 05:57N 29°13' W 094°32'510.9
2018-Feb-16 05:27N 29°17' W 094°36'511.1
2018-Feb-16 05:00N 29°20' W 094°40'510.0
2018-Feb-16 04:27N 29°20' W 094°47'2 4.2
2018-Feb-16 03:59N 29°19' W 094°48'0 0.0
2018-Feb-16 00:29N 29°19' W 094°48'2 4.0
2018-Feb-15 23:59N 29°20' W 094°47'4 8.2
2018-Feb-15 23:28N 29°23' W 094°49'4 8.9
2018-Feb-15 22:59N 29°27' W 094°51'5 9.4
2018-Feb-15 22:25N 29°32' W 094°54'18 6.4
2018-Feb-15 19:35N 29°44' W 095°09'5 0.4
2018-Feb-15 08:29N 29°43' W 095°15'0 0.0
2018-Feb-15 07:56N 29°43' W 095°15'0 0.0
2018-Feb-15 06:49N 29°43' W 095°15'0 0.0
2018-Feb-15 05:06N 29°43' W 095°15'0 0.0
2018-Feb-15 04:57N 29°43' W 095°15'5 0.2
2018-Feb-13 18:30N 29°44' W 095°09'3 6.5
2018-Feb-13 18:00N 29°46' W 095°05'3 6.4
2018-Feb-13 17:29N 29°44' W 095°02'4 7.8
2018-Feb-13 17:00N 29°41' W 094°59'510.7
2018-Feb-13 16:30N 29°36' W 094°57'611.6
2018-Feb-13 16:00N 29°31' W 094°53'611.3
2018-Feb-13 15:30N 29°26' W 094°50'  

Dump ship's entire track history